sensor_id;sensor_type;location;lat;lon;timestamp;pressure;altitude;pressure_sealevel;temperature;humidity
6216;BME280;3141;49.234;9.326;2023-05-16T00:00:00;99320.06;;;14.74;82.40
6216;BME280;3141;49.234;9.326;2023-05-16T00:01:01;99316.41;;;14.75;82.49
6216;BME280;3141;49.234;9.326;2023-05-16T00:02:03;99320.50;;;14.77;82.13
6216;BME280;3141;49.234;9.326;2023-05-16T00:03:05;99321.78;;;14.81;82.05
6216;BME280;3141;49.234;9.326;2023-05-16T00:04:06;99324.25;;;14.83;82.06
6216;BME280;3141;49.234;9.326;2023-05-16T00:05:07;99321.72;;;14.75;82.10
6216;BME280;3141;49.234;9.326;2023-05-16T00:06:10;99322.63;;;14.82;81.62
6216;BME280;3141;49.234;9.326;2023-05-16T00:07:11;99326.28;;;14.81;81.82
6216;BME280;3141;49.234;9.326;2023-05-16T00:08:12;99318.44;;;14.73;82.22
6216;BME280;3141;49.234;9.326;2023-05-16T00:09:13;99322.94;;;14.72;81.74
6216;BME280;3141;49.234;9.326;2023-05-16T00:10:14;99325.53;;;14.66;82.34
6216;BME280;3141;49.234;9.326;2023-05-16T00:11:16;99321.28;;;14.71;81.74
6216;BME280;3141;49.234;9.326;2023-05-16T00:12:17;99330.47;;;14.69;82.52
6216;BME280;3141;49.234;9.326;2023-05-16T00:13:19;99328.19;;;14.66;82.76
6216;BME280;3141;49.234;9.326;2023-05-16T00:14:25;99326.56;;;14.65;82.51
6216;BME280;3141;49.234;9.326;2023-05-16T00:15:26;99326.38;;;14.66;82.95
6216;BME280;3141;49.234;9.326;2023-05-16T00:16:29;99322.72;;;14.74;83.07
6216;BME280;3141;49.234;9.326;2023-05-16T00:17:30;99324.19;;;14.76;82.78
6216;BME280;3141;49.234;9.326;2023-05-16T00:18:32;99325.84;;;14.77;82.26
6216;BME280;3141;49.234;9.326;2023-05-16T00:19:33;99318.19;;;14.68;82.80
6216;BME280;3141;49.234;9.326;2023-05-16T00:20:35;99317.09;;;14.62;82.90
6216;BME280;3141;49.234;9.326;2023-05-16T00:21:36;99323.56;;;14.53;83.40
6216;BME280;3141;49.234;9.326;2023-05-16T00:22:37;99318.69;;;14.57;83.27
6216;BME280;3141;49.234;9.326;2023-05-16T00:23:38;99325.03;;;14.56;83.19
6216;BME280;3141;49.234;9.326;2023-05-16T00:24:39;99317.31;;;14.61;83.32
6216;BME280;3141;49.234;9.326;2023-05-16T00:25:39;99321.97;;;14.59;83.10
6216;BME280;3141;49.234;9.326;2023-05-16T00:26:41;99326.91;;;14.62;82.78
6216;BME280;3141;49.234;9.326;2023-05-16T00:27:42;99323.66;;;14.60;82.45
6216;BME280;3141;49.234;9.326;2023-05-16T00:28:43;99326.13;;;14.61;82.22
6216;BME280;3141;49.234;9.326;2023-05-16T00:29:43;99323.91;;;14.65;82.34
6216;BME280;3141;49.234;9.326;2023-05-16T00:30:45;99323.31;;;14.69;82.20
6216;BME280;3141;49.234;9.326;2023-05-16T00:31:45;99324.16;;;14.70;82.06
6216;BME280;3141;49.234;9.326;2023-05-16T00:32:46;99321.28;;;14.71;82.07
6216;BME280;3141;49.234;9.326;2023-05-16T00:33:47;99323.91;;;14.65;82.18
6216;BME280;3141;49.234;9.326;2023-05-16T00:34:48;99325.16;;;14.48;83.11
6216;BME280;3141;49.234;9.326;2023-05-16T00:35:49;99318.94;;;14.41;83.28
6216;BME280;3141;49.234;9.326;2023-05-16T00:36:51;99326.09;;;14.40;83.35
6216;BME280;3141;49.234;9.326;2023-05-16T00:37:52;99328.25;;;14.30;83.82
6216;BME280;3141;49.234;9.326;2023-05-16T00:38:53;99324.56;;;14.31;83.52
6216;BME280;3141;49.234;9.326;2023-05-16T00:39:54;99327.41;;;14.30;83.54
6216;BME280;3141;49.234;9.326;2023-05-16T00:40:55;99328.69;;;14.34;83.39
6216;BME280;3141;49.234;9.326;2023-05-16T00:41:56;99328.06;;;14.32;83.06
6216;BME280;3141;49.234;9.326;2023-05-16T00:42:57;99327.59;;;14.28;83.30
6216;BME280;3141;49.234;9.326;2023-05-16T00:43:58;99321.63;;;14.26;83.33
6216;BME280;3141;49.234;9.326;2023-05-16T00:44:59;99331.69;;;14.31;83.10
6216;BME280;3141;49.234;9.326;2023-05-16T00:46:00;99320.72;;;14.34;82.70
6216;BME280;3141;49.234;9.326;2023-05-16T00:47:01;99321.31;;;14.36;82.58
6216;BME280;3141;49.234;9.326;2023-05-16T00:48:03;99321.69;;;14.33;82.85
6216;BME280;3141;49.234;9.326;2023-05-16T00:49:04;99324.09;;;14.28;83.17
6216;BME280;3141;49.234;9.326;2023-05-16T00:50:06;99319.81;;;14.27;83.59
6216;BME280;3141;49.234;9.326;2023-05-16T00:51:07;99322.53;;;14.33;83.71
6216;BME280;3141;49.234;9.326;2023-05-16T00:52:08;99322.22;;;14.43;82.74
6216;BME280;3141;49.234;9.326;2023-05-16T00:53:10;99325.97;;;14.48;82.51
6216;BME280;3141;49.234;9.326;2023-05-16T00:54:12;99325.56;;;14.51;82.30
6216;BME280;3141;49.234;9.326;2023-05-16T00:55:13;99322.75;;;14.53;81.92
6216;BME280;3141;49.234;9.326;2023-05-16T00:56:14;99323.50;;;14.47;82.49
6216;BME280;3141;49.234;9.326;2023-05-16T00:57:16;99326.78;;;14.49;82.47
6216;BME280;3141;49.234;9.326;2023-05-16T00:58:18;99316.78;;;14.51;81.81
6216;BME280;3141;49.234;9.326;2023-05-16T00:59:19;99324.88;;;14.43;81.75
6216;BME280;3141;49.234;9.326;2023-05-16T01:00:20;99318.66;;;14.36;82.13
6216;BME280;3141;49.234;9.326;2023-05-16T01:01:22;99319.69;;;14.35;82.41
6216;BME280;3141;49.234;9.326;2023-05-16T01:02:24;99316.38;;;14.33;82.89
6216;BME280;3141;49.234;9.326;2023-05-16T01:03:28;99318.41;;;14.31;82.75
6216;BME280;3141;49.234;9.326;2023-05-16T01:04:29;99316.38;;;14.33;82.81
6216;BME280;3141;49.234;9.326;2023-05-16T01:05:31;99316.00;;;14.36;82.90
6216;BME280;3141;49.234;9.326;2023-05-16T01:06:33;99323.97;;;14.36;82.58
6216;BME280;3141;49.234;9.326;2023-05-16T01:07:34;99315.94;;;14.29;82.78
6216;BME280;3141;49.234;9.326;2023-05-16T01:08:35;99323.19;;;14.35;82.44
6216;BME280;3141;49.234;9.326;2023-05-16T01:09:37;99319.63;;;14.28;82.70
6216;BME280;3141;49.234;9.326;2023-05-16T01:10:49;99322.28;;;14.28;82.73
6216;BME280;3141;49.234;9.326;2023-05-16T01:13:17;99325.94;;;14.27;82.80
6216;BME280;3141;49.234;9.326;2023-05-16T01:14:37;99328.25;;;14.30;83.09
6216;BME280;3141;49.234;9.326;2023-05-16T01:15:46;99322.78;;;14.24;82.55
6216;BME280;3141;49.234;9.326;2023-05-16T01:18:05;99325.94;;;14.27;82.60
6216;BME280;3141;49.234;9.326;2023-05-16T01:20:55;99315.66;;;14.39;81.95
6216;BME280;3141;49.234;9.326;2023-05-16T01:22:18;99322.16;;;14.36;82.30
6216;BME280;3141;49.234;9.326;2023-05-16T01:25:04;99319.88;;;14.33;82.55
6216;BME280;3141;49.234;9.326;2023-05-16T01:26:20;99317.22;;;14.33;82.35
6216;BME280;3141;49.234;9.326;2023-05-16T01:27:22;99321.06;;;14.31;81.82
6216;BME280;3141;49.234;9.326;2023-05-16T01:28:24;99322.59;;;14.40;81.71
6216;BME280;3141;49.234;9.326;2023-05-16T01:29:26;99329.00;;;14.45;81.75
6216;BME280;3141;49.234;9.326;2023-05-16T01:30:35;99329.00;;;14.45;81.89
6216;BME280;3141;49.234;9.326;2023-05-16T01:31:36;99325.06;;;14.41;82.20
6216;BME280;3141;49.234;9.326;2023-05-16T01:32:37;99326.63;;;14.36;82.59
6216;BME280;3141;49.234;9.326;2023-05-16T01:33:38;99322.78;;;14.24;82.94
6216;BME280;3141;49.234;9.326;2023-05-16T01:34:39;99326.03;;;14.19;83.87
6216;BME280;3141;49.234;9.326;2023-05-16T01:35:49;99328.94;;;14.24;83.25
6216;BME280;3141;49.234;9.326;2023-05-16T01:37:08;99324.84;;;14.22;83.09
6216;BME280;3141;49.234;9.326;2023-05-16T01:38:23;99337.31;;;14.07;83.38
6216;BME280;3141;49.234;9.326;2023-05-16T01:39:44;99328.81;;;13.97;84.20
6216;BME280;3141;49.234;9.326;2023-05-16T01:40:53;99335.41;;;14.01;84.22
6216;BME280;3141;49.234;9.326;2023-05-16T01:42:07;99329.97;;;14.09;83.76
6216;BME280;3141;49.234;9.326;2023-05-16T01:43:12;99334.03;;;14.05;83.74
6216;BME280;3141;49.234;9.326;2023-05-16T01:44:41;99331.53;;;14.03;83.86
6216;BME280;3141;49.234;9.326;2023-05-16T01:45:49;99340.25;;;14.12;83.16
6216;BME280;3141;49.234;9.326;2023-05-16T01:46:57;99333.41;;;14.03;83.97
6216;BME280;3141;49.234;9.326;2023-05-16T01:48:14;99334.69;;;13.92;84.47
6216;BME280;3141;49.234;9.326;2023-05-16T01:49:29;99332.00;;;14.07;83.81
6216;BME280;3141;49.234;9.326;2023-05-16T01:50:33;99329.06;;;14.16;83.79
6216;BME280;3141;49.234;9.326;2023-05-16T01:51:38;99329.31;;;14.21;83.49
6216;BME280;3141;49.234;9.326;2023-05-16T01:52:44;99329.97;;;14.23;82.77
6216;BME280;3141;49.234;9.326;2023-05-16T01:53:45;99333.25;;;14.25;82.43
6216;BME280;3141;49.234;9.326;2023-05-16T01:54:51;99322.00;;;14.23;82.36
6216;BME280;3141;49.234;9.326;2023-05-16T01:55:56;99329.59;;;14.12;83.07
6216;BME280;3141;49.234;9.326;2023-05-16T01:56:58;99330.25;;;14.14;83.06
6216;BME280;3141;49.234;9.326;2023-05-16T01:58:02;99327.06;;;14.18;82.69
6216;BME280;3141;49.234;9.326;2023-05-16T01:59:04;99330.06;;;14.15;83.02
6216;BME280;3141;49.234;9.326;2023-05-16T02:00:06;99338.88;;;14.16;83.40
6216;BME280;3141;49.234;9.326;2023-05-16T02:01:08;99334.44;;;14.23;83.12
6216;BME280;3141;49.234;9.326;2023-05-16T02:02:09;99335.28;;;14.23;83.00
6216;BME280;3141;49.234;9.326;2023-05-16T02:03:10;99331.09;;;14.14;83.00
6216;BME280;3141;49.234;9.326;2023-05-16T02:04:11;99337.13;;;14.08;83.51
6216;BME280;3141;49.234;9.326;2023-05-16T02:05:13;99334.56;;;14.15;83.25
6216;BME280;3141;49.234;9.326;2023-05-16T02:06:15;99342.16;;;14.18;83.50
6216;BME280;3141;49.234;9.326;2023-05-16T02:07:16;99336.09;;;14.24;83.11
6216;BME280;3141;49.234;9.326;2023-05-16T02:08:17;99340.78;;;14.22;83.26
6216;BME280;3141;49.234;9.326;2023-05-16T02:09:19;99348.06;;;14.13;83.43
6216;BME280;3141;49.234;9.326;2023-05-16T02:10:20;99337.69;;;14.04;83.89
6216;BME280;3141;49.234;9.326;2023-05-16T02:11:21;99342.03;;;14.05;83.83
6216;BME280;3141;49.234;9.326;2023-05-16T02:12:23;99338.25;;;13.99;84.29
6216;BME280;3141;49.234;9.326;2023-05-16T02:13:24;99340.53;;;14.02;84.27
6216;BME280;3141;49.234;9.326;2023-05-16T02:14:25;99340.34;;;14.04;83.88
6216;BME280;3141;49.234;9.326;2023-05-16T02:15:26;99343.47;;;14.07;83.47
6216;BME280;3141;49.234;9.326;2023-05-16T02:16:29;99341.00;;;14.06;84.40
6216;BME280;3141;49.234;9.326;2023-05-16T02:17:31;99340.34;;;14.04;84.49
6216;BME280;3141;49.234;9.326;2023-05-16T02:18:32;99331.28;;;14.13;83.97
6216;BME280;3141;49.234;9.326;2023-05-16T02:19:33;99337.50;;;14.20;83.70
6216;BME280;3141;49.234;9.326;2023-05-16T02:20:34;99334.19;;;14.18;84.00
6216;BME280;3141;49.234;9.326;2023-05-16T02:21:35;99337.03;;;14.16;84.07
6216;BME280;3141;49.234;9.326;2023-05-16T02:22:36;99330.25;;;14.14;83.98
6216;BME280;3141;49.234;9.326;2023-05-16T02:23:38;99334.13;;;14.11;84.57
6216;BME280;3141;49.234;9.326;2023-05-16T02:24:40;99340.25;;;14.12;84.30
6216;BME280;3141;49.234;9.326;2023-05-16T02:25:40;99336.59;;;14.13;84.16
6216;BME280;3141;49.234;9.326;2023-05-16T02:26:42;99341.81;;;14.06;84.79
6216;BME280;3141;49.234;9.326;2023-05-16T02:27:42;99341.38;;;14.03;84.76
6216;BME280;3141;49.234;9.326;2023-05-16T02:28:43;99338.25;;;13.99;84.59
6216;BME280;3141;49.234;9.326;2023-05-16T02:29:44;99333.94;;;13.98;84.94
6216;BME280;3141;49.234;9.326;2023-05-16T02:30:55;99342.03;;;14.05;84.75
6216;BME280;3141;49.234;9.326;2023-05-16T02:31:57;99336.69;;;14.05;84.57
6216;BME280;3141;49.234;9.326;2023-05-16T02:32:58;99333.94;;;13.98;85.09
6216;BME280;3141;49.234;9.326;2023-05-16T02:33:59;99338.00;;;13.94;85.09
6216;BME280;3141;49.234;9.326;2023-05-16T02:35:00;99345.78;;;13.96;84.97
6216;BME280;3141;49.234;9.326;2023-05-16T02:36:01;99339.00;;;13.93;85.01
6216;BME280;3141;49.234;9.326;2023-05-16T02:37:03;99339.25;;;13.98;84.73
6216;BME280;3141;49.234;9.326;2023-05-16T02:38:04;99336.88;;;14.03;84.42
6216;BME280;3141;49.234;9.326;2023-05-16T02:39:05;99342.47;;;13.93;84.98
6216;BME280;3141;49.234;9.326;2023-05-16T02:40:07;99341.47;;;13.94;84.94
6216;BME280;3141;49.234;9.326;2023-05-16T02:41:08;99346.59;;;13.96;84.97
6216;BME280;3141;49.234;9.326;2023-05-16T02:42:10;99351.75;;;13.98;84.72
6216;BME280;3141;49.234;9.326;2023-05-16T02:43:10;99347.69;;;14.02;84.90
6216;BME280;3141;49.234;9.326;2023-05-16T02:44:12;99350.34;;;14.02;84.62
6216;BME280;3141;49.234;9.326;2023-05-16T02:45:13;99352.28;;;14.08;84.20
6216;BME280;3141;49.234;9.326;2023-05-16T02:46:28;99336.59;;;14.13;84.02
6216;BME280;3141;49.234;9.326;2023-05-16T02:47:30;99349.31;;;14.17;83.55
6216;BME280;3141;49.234;9.326;2023-05-16T02:48:31;99344.38;;;14.14;83.20
6216;BME280;3141;49.234;9.326;2023-05-16T02:49:32;99345.28;;;14.07;83.49
6216;BME280;3141;49.234;9.326;2023-05-16T02:50:33;99350.41;;;14.08;83.54
6216;BME280;3141;49.234;9.326;2023-05-16T02:51:34;99350.34;;;14.02;83.83
6216;BME280;3141;49.234;9.326;2023-05-16T02:52:35;99348.31;;;14.04;83.79
6216;BME280;3141;49.234;9.326;2023-05-16T02:53:36;99354.84;;;14.01;84.40
6216;BME280;3141;49.234;9.326;2023-05-16T02:54:37;99350.53;;;14.00;84.25
6216;BME280;3141;49.234;9.326;2023-05-16T02:55:38;99355.66;;;14.02;84.32
6216;BME280;3141;49.234;9.326;2023-05-16T02:56:39;99349.34;;;14.03;84.35
6216;BME280;3141;49.234;9.326;2023-05-16T02:57:40;99347.16;;;14.06;84.42
6216;BME280;3141;49.234;9.326;2023-05-16T02:58:41;99350.00;;;14.05;84.13
6216;BME280;3141;49.234;9.326;2023-05-16T02:59:43;99347.88;;;14.00;84.43
6216;BME280;3141;49.234;9.326;2023-05-16T03:00:43;99353.00;;;14.02;84.49
6216;BME280;3141;49.234;9.326;2023-05-16T03:01:44;99348.78;;;14.07;84.33
6216;BME280;3141;49.234;9.326;2023-05-16T03:02:45;99352.47;;;14.06;84.17
6216;BME280;3141;49.234;9.326;2023-05-16T03:03:46;99351.88;;;14.11;83.82
6216;BME280;3141;49.234;9.326;2023-05-16T03:04:47;99356.63;;;14.15;83.63
6216;BME280;3141;49.234;9.326;2023-05-16T03:05:49;99349.50;;;14.16;83.69
6216;BME280;3141;49.234;9.326;2023-05-16T03:06:51;99358.69;;;14.13;83.58
6216;BME280;3141;49.234;9.326;2023-05-16T03:07:52;99362.06;;;14.07;83.86
6216;BME280;3141;49.234;9.326;2023-05-16T03:08:53;99355.31;;;14.05;84.01
6216;BME280;3141;49.234;9.326;2023-05-16T03:09:54;99355.84;;;14.15;83.54
6216;BME280;3141;49.234;9.326;2023-05-16T03:10:55;99366.47;;;14.15;83.99
6216;BME280;3141;49.234;9.326;2023-05-16T03:11:56;99361.34;;;13.99;84.42
6216;BME280;3141;49.234;9.326;2023-05-16T03:12:57;99366.28;;;14.02;84.34
6216;BME280;3141;49.234;9.326;2023-05-16T03:13:58;99362.25;;;14.06;84.29
6216;BME280;3141;49.234;9.326;2023-05-16T03:14:59;99358.50;;;14.00;84.25
6216;BME280;3141;49.234;9.326;2023-05-16T03:16:01;99361.03;;;14.08;84.07
6216;BME280;3141;49.234;9.326;2023-05-16T03:17:02;99362.16;;;14.14;83.76
6216;BME280;3141;49.234;9.326;2023-05-16T03:18:03;99368.09;;;14.16;84.29
6216;BME280;3141;49.234;9.326;2023-05-16T03:19:04;99361.78;;;14.17;83.85
6216;BME280;3141;49.234;9.326;2023-05-16T03:20:06;99364.25;;;14.18;83.73
6216;BME280;3141;49.234;9.326;2023-05-16T03:21:08;99358.38;;;14.23;83.45
6216;BME280;3141;49.234;9.326;2023-05-16T03:22:09;99363.69;;;14.23;83.35
6216;BME280;3141;49.234;9.326;2023-05-16T03:23:10;99372.69;;;14.22;83.54
6216;BME280;3141;49.234;9.326;2023-05-16T03:24:11;99364.34;;;14.25;83.78
6216;BME280;3141;49.234;9.326;2023-05-16T03:25:12;99363.44;;;14.32;83.18
6216;BME280;3141;49.234;9.326;2023-05-16T03:26:13;99365.91;;;14.34;82.88
6216;BME280;3141;49.234;9.326;2023-05-16T03:27:14;99364.25;;;14.18;83.32
6216;BME280;3141;49.234;9.326;2023-05-16T03:28:16;99359.94;;;14.17;84.12
6216;BME280;3141;49.234;9.326;2023-05-16T03:29:17;99362.66;;;14.24;83.77
6216;BME280;3141;49.234;9.326;2023-05-16T03:30:18;99368.31;;;14.29;83.48
6216;BME280;3141;49.234;9.326;2023-05-16T03:31:19;99366.25;;;14.31;83.01
6216;BME280;3141;49.234;9.326;2023-05-16T03:32:20;99364.69;;;14.36;82.80
6216;BME280;3141;49.234;9.326;2023-05-16T03:33:21;99364.16;;;14.41;82.58
6216;BME280;3141;49.234;9.326;2023-05-16T03:34:23;99370.72;;;14.45;82.39
6216;BME280;3141;49.234;9.326;2023-05-16T03:35:24;99364.78;;;14.43;82.09
6216;BME280;3141;49.234;9.326;2023-05-16T03:36:26;99363.44;;;14.32;81.95
6216;BME280;3141;49.234;9.326;2023-05-16T03:37:26;99364.63;;;14.30;82.82
6216;BME280;3141;49.234;9.326;2023-05-16T03:38:28;99363.00;;;14.29;82.80
6216;BME280;3141;49.234;9.326;2023-05-16T03:39:29;99363.78;;;14.29;82.75
6216;BME280;3141;49.234;9.326;2023-05-16T03:40:30;99362.22;;;14.35;82.47
6216;BME280;3141;49.234;9.326;2023-05-16T03:41:31;99361.59;;;14.33;82.62
6216;BME280;3141;49.234;9.326;2023-05-16T03:42:32;99363.00;;;14.29;82.85
6216;BME280;3141;49.234;9.326;2023-05-16T03:43:33;99369.66;;;14.25;83.18
6216;BME280;3141;49.234;9.326;2023-05-16T03:44:34;99360.78;;;14.18;83.04
6216;BME280;3141;49.234;9.326;2023-05-16T03:45:35;99366.72;;;14.20;82.92
6216;BME280;3141;49.234;9.326;2023-05-16T03:46:36;99366.09;;;14.18;83.22
6216;BME280;3141;49.234;9.326;2023-05-16T03:47:37;99365.19;;;14.11;83.60
6216;BME280;3141;49.234;9.326;2023-05-16T03:48:38;99366.03;;;14.11;84.42
6216;BME280;3141;49.234;9.326;2023-05-16T03:49:39;99362.78;;;14.16;83.45
6216;BME280;3141;49.234;9.326;2023-05-16T03:50:40;99367.66;;;14.12;83.76
6216;BME280;3141;49.234;9.326;2023-05-16T03:51:41;99362.97;;;14.00;84.35
6216;BME280;3141;49.234;9.326;2023-05-16T03:52:43;99372.63;;;14.01;84.92
6216;BME280;3141;49.234;9.326;2023-05-16T03:53:44;99365.28;;;14.03;84.62
6216;BME280;3141;49.234;9.326;2023-05-16T03:54:45;99363.34;;;13.97;84.82
6216;BME280;3141;49.234;9.326;2023-05-16T03:55:46;99367.41;;;13.93;85.13
6216;BME280;3141;49.234;9.326;2023-05-16T03:56:47;99366.97;;;13.89;85.35
6216;BME280;3141;49.234;9.326;2023-05-16T03:57:48;99366.22;;;13.95;84.55
6216;BME280;3141;49.234;9.326;2023-05-16T03:58:49;99371.25;;;14.05;83.94
6216;BME280;3141;49.234;9.326;2023-05-16T03:59:50;99364.72;;;14.07;84.01
6216;BME280;3141;49.234;9.326;2023-05-16T04:00:51;99368.22;;;14.08;83.72
6216;BME280;3141;49.234;9.326;2023-05-16T04:01:52;99374.00;;;14.11;84.30
6216;BME280;3141;49.234;9.326;2023-05-16T04:02:53;99378.84;;;14.08;84.46
6216;BME280;3141;49.234;9.326;2023-05-16T04:03:54;99373.34;;;14.09;83.84
6216;BME280;3141;49.234;9.326;2023-05-16T04:04:55;99369.22;;;14.07;83.36
6216;BME280;3141;49.234;9.326;2023-05-16T04:05:56;99371.88;;;14.07;83.83
6216;BME280;3141;49.234;9.326;2023-05-16T04:06:57;99374.53;;;14.07;83.66
6216;BME280;3141;49.234;9.326;2023-05-16T04:07:58;99371.25;;;14.05;83.81
6216;BME280;3141;49.234;9.326;2023-05-16T04:08:59;99378.22;;;14.06;84.18
6216;BME280;3141;49.234;9.326;2023-05-16T04:10:00;99371.06;;;14.06;84.54
6216;BME280;3141;49.234;9.326;2023-05-16T04:11:01;99382.78;;;14.12;84.21
6216;BME280;3141;49.234;9.326;2023-05-16T04:12:02;99381.03;;;14.19;83.43
6216;BME280;3141;49.234;9.326;2023-05-16T04:13:03;99378.34;;;14.19;83.49
6216;BME280;3141;49.234;9.326;2023-05-16T04:14:04;99386.97;;;14.21;83.69
6216;BME280;3141;49.234;9.326;2023-05-16T04:15:05;99383.31;;;14.22;83.62
6216;BME280;3141;49.234;9.326;2023-05-16T04:16:06;99377.56;;;14.18;83.76
6216;BME280;3141;49.234;9.326;2023-05-16T04:17:07;99387.09;;;14.13;84.05
6216;BME280;3141;49.234;9.326;2023-05-16T04:18:08;99383.22;;;14.15;83.91
6216;BME280;3141;49.234;9.326;2023-05-16T04:19:10;99384.31;;;14.21;83.82
6216;BME280;3141;49.234;9.326;2023-05-16T04:20:11;99383.06;;;14.17;83.96
6216;BME280;3141;49.234;9.326;2023-05-16T04:21:12;99382.22;;;14.16;83.99
6216;BME280;3141;49.234;9.326;2023-05-16T04:22:14;99387.81;;;14.21;83.52
6216;BME280;3141;49.234;9.326;2023-05-16T04:23:15;99385.44;;;14.26;83.01
6216;BME280;3141;49.234;9.326;2023-05-16T04:24:17;99379.28;;;14.26;82.89
6216;BME280;3141;49.234;9.326;2023-05-16T04:25:18;99385.72;;;14.31;83.00
6216;BME280;3141;49.234;9.326;2023-05-16T04:26:19;99377.44;;;14.41;82.29
6216;BME280;3141;49.234;9.326;2023-05-16T04:27:22;99376.63;;;14.40;82.10
6216;BME280;3141;49.234;9.326;2023-05-16T04:28:23;99384.16;;;14.37;82.10
6216;BME280;3141;49.234;9.326;2023-05-16T04:29:24;99381.97;;;14.26;82.47
6216;BME280;3141;49.234;9.326;2023-05-16T04:30:25;99381.97;;;14.26;83.16
6216;BME280;3141;49.234;9.326;2023-05-16T04:31:26;99390.03;;;14.32;82.91
6216;BME280;3141;49.234;9.326;2023-05-16T04:32:27;99383.25;;;14.30;83.04
6216;BME280;3141;49.234;9.326;2023-05-16T04:33:28;99379.81;;;14.36;82.79
6216;BME280;3141;49.234;9.326;2023-05-16T04:34:29;99382.78;;;14.41;82.73
6216;BME280;3141;49.234;9.326;2023-05-16T04:35:30;99383.03;;;14.46;82.88
6216;BME280;3141;49.234;9.326;2023-05-16T04:36:32;99389.00;;;14.48;82.80
6216;BME280;3141;49.234;9.326;2023-05-16T04:37:35;99392.25;;;14.50;82.23
6216;BME280;3141;49.234;9.326;2023-05-16T04:38:36;99391.00;;;14.46;82.77
6216;BME280;3141;49.234;9.326;2023-05-16T04:39:37;99394.53;;;14.32;83.56
6216;BME280;3141;49.234;9.326;2023-05-16T04:40:38;99395.25;;;14.40;83.27
6216;BME280;3141;49.234;9.326;2023-05-16T04:41:41;99408.47;;;14.55;82.58
6216;BME280;3141;49.234;9.326;2023-05-16T04:42:42;99396.47;;;14.59;82.20
6216;BME280;3141;49.234;9.326;2023-05-16T04:43:43;99403.16;;;14.55;82.52
6216;BME280;3141;49.234;9.326;2023-05-16T04:44:44;99398.25;;;14.73;81.89
6216;BME280;3141;49.234;9.326;2023-05-16T04:45:47;99404.09;;;14.83;81.06
6216;BME280;3141;49.234;9.326;2023-05-16T04:46:48;99407.78;;;14.82;81.04
6216;BME280;3141;49.234;9.326;2023-05-16T04:47:49;99414.59;;;14.91;80.94
6216;BME280;3141;49.234;9.326;2023-05-16T04:48:50;99413.47;;;15.00;80.63
6216;BME280;3141;49.234;9.326;2023-05-16T04:49:51;99417.47;;;15.11;80.17
6216;BME280;3141;49.234;9.326;2023-05-16T04:50:52;99412.19;;;15.17;79.73
6216;BME280;3141;49.234;9.326;2023-05-16T04:51:53;99410.94;;;15.13;79.52
6216;BME280;3141;49.234;9.326;2023-05-16T04:52:54;99420.38;;;15.16;79.31
6216;BME280;3141;49.234;9.326;2023-05-16T04:53:55;99418.53;;;15.16;79.35
6216;BME280;3141;49.234;9.326;2023-05-16T04:54:56;99416.72;;;15.17;79.55
6216;BME280;3141;49.234;9.326;2023-05-16T04:56:00;99419.81;;;15.20;79.52
6216;BME280;3141;49.234;9.326;2023-05-16T04:57:01;99418.53;;;15.16;79.42
6216;BME280;3141;49.234;9.326;2023-05-16T04:58:02;99421.47;;;15.21;79.81
6216;BME280;3141;49.234;9.326;2023-05-16T04:59:03;99414.75;;;15.25;79.36
6216;BME280;3141;49.234;9.326;2023-05-16T05:00:05;99421.75;;;15.33;78.87
6216;BME280;3141;49.234;9.326;2023-05-16T05:01:09;99427.63;;;15.22;78.82
6216;BME280;3141;49.234;9.326;2023-05-16T05:02:10;99427.38;;;15.17;79.33
6216;BME280;3141;49.234;9.326;2023-05-16T05:03:10;99428.50;;;15.07;79.80
6216;BME280;3141;49.234;9.326;2023-05-16T05:04:11;99426.41;;;15.03;80.20
6216;BME280;3141;49.234;9.326;2023-05-16T05:05:12;99429.19;;;15.16;79.92
6216;BME280;3141;49.234;9.326;2023-05-16T05:06:13;99426.16;;;15.19;79.80
6216;BME280;3141;49.234;9.326;2023-05-16T05:07:14;99435.28;;;15.10;80.27
6216;BME280;3141;49.234;9.326;2023-05-16T05:08:15;99435.34;;;15.17;80.20
6216;BME280;3141;49.234;9.326;2023-05-16T05:09:16;99441.72;;;15.22;80.10
6216;BME280;3141;49.234;9.326;2023-05-16T05:10:17;99436.16;;;15.38;79.55
6216;BME280;3141;49.234;9.326;2023-05-16T05:11:18;99435.44;;;15.44;79.26
6216;BME280;3141;49.234;9.326;2023-05-16T05:12:19;99441.63;;;15.51;79.11
6216;BME280;3141;49.234;9.326;2023-05-16T05:13:20;99442.25;;;15.53;78.84
6216;BME280;3141;49.234;9.326;2023-05-16T05:14:21;99444.16;;;15.59;78.43
6216;BME280;3141;49.234;9.326;2023-05-16T05:15:22;99442.91;;;15.62;78.49
6216;BME280;3141;49.234;9.326;2023-05-16T05:16:23;99449.47;;;15.59;78.63
6216;BME280;3141;49.234;9.326;2023-05-16T05:17:24;99447.88;;;15.65;78.37
6216;BME280;3141;49.234;9.326;2023-05-16T05:18:25;99451.56;;;15.64;78.44
6216;BME280;3141;49.234;9.326;2023-05-16T05:19:26;99448.19;;;15.55;78.56
6216;BME280;3141;49.234;9.326;2023-05-16T05:20:27;99447.56;;;15.53;79.00
6216;BME280;3141;49.234;9.326;2023-05-16T05:21:28;99448.00;;;15.57;79.26
6216;BME280;3141;49.234;9.326;2023-05-16T05:22:30;99449.69;;;15.58;79.29
6216;BME280;3141;49.234;9.326;2023-05-16T05:23:31;99447.66;;;15.60;79.21
6216;BME280;3141;49.234;9.326;2023-05-16T05:24:32;99450.22;;;15.53;79.79
6216;BME280;3141;49.234;9.326;2023-05-16T05:25:35;99446.13;;;15.51;80.40
6216;BME280;3141;49.234;9.326;2023-05-16T05:26:36;99444.75;;;15.55;79.55
6216;BME280;3141;49.234;9.326;2023-05-16T05:27:36;99447.59;;;15.32;81.54
6216;BME280;3141;49.234;9.326;2023-05-16T05:28:37;99450.97;;;15.41;81.71
6216;BME280;3141;49.234;9.326;2023-05-16T05:29:38;99451.78;;;15.41;81.79
6216;BME280;3141;49.234;9.326;2023-05-16T05:30:39;99446.94;;;15.30;82.24
6216;BME280;3141;49.234;9.326;2023-05-16T05:31:40;99453.81;;;15.39;82.41
6216;BME280;3141;49.234;9.326;2023-05-16T05:32:41;99449.34;;;15.46;82.05
6216;BME280;3141;49.234;9.326;2023-05-16T05:33:42;99448.59;;;15.52;82.06
6216;BME280;3141;49.234;9.326;2023-05-16T05:34:43;99451.91;;;15.54;81.85
6216;BME280;3141;49.234;9.326;2023-05-16T05:35:44;99455.56;;;15.53;81.91
6216;BME280;3141;49.234;9.326;2023-05-16T05:36:45;99453.13;;;15.58;81.50
6216;BME280;3141;49.234;9.326;2023-05-16T05:37:46;99451.34;;;15.65;81.17
6216;BME280;3141;49.234;9.326;2023-05-16T05:38:47;99453.00;;;15.66;80.73
6216;BME280;3141;49.234;9.326;2023-05-16T05:39:48;99456.91;;;15.70;80.75
6216;BME280;3141;49.234;9.326;2023-05-16T05:40:49;99458.59;;;15.71;81.25
6216;BME280;3141;49.234;9.326;2023-05-16T05:41:50;99454.13;;;15.78;80.83
6216;BME280;3141;49.234;9.326;2023-05-16T05:42:51;99459.25;;;15.80;80.87
6216;BME280;3141;49.234;9.326;2023-05-16T05:43:52;99458.66;;;15.84;80.76